Latest Weather Observations for Rottnest Island

IDW60801

Issued at 5:05 pm WST Saturday 23 August 2014 (issued every 30 minutes, with the page automatically refreshed every 10 minutes)

About weather observations | Map of weather stations | Latest weather observations for WA | Other Formats
Station Details ID: 009193 Name: ROTTNEST ISLAND Lat: -32.01 Lon: 115.50 Height: 43.1 m
Data from the previous 72 hours. | See also: Recent months at Rottnest Island
Date/Time
WST
Temp
°C
App
Temp
°C
Dew
Point
Rel
Hum
%
Delta-T
°C
Wind Press
QNH
hPa
Press
MSL
hPa
Rain
since 9 am
mm
Dir
 
Spd
km/h
Gust
km/h
Spd
kts
Gust
kts
23/05:00pm 17.6 16.1 9.2 58 4.4 S 7 9 4 5 1021.3 1021.3 0.0
23/04:30pm 17.9 15.5 8.7 55 4.7 S 11 13 6 7 1021.3 1021.3 0.0
23/04:00pm 18.6 15.9 9.1 54 5.0 SW 13 17 7 9 1021.5 1021.5 0.0
23/03:30pm 18.7 15.6 8.9 53 5.1 WSW 15 22 8 12 1021.6 1021.6 0.0
23/03:00pm 18.7 15.9 8.7 52 5.2 W 13 19 7 10 1021.8 1021.8 0.0
23/02:30pm 18.7 16.1 9.2 54 5.0 W 13 17 7 9 1021.8 1021.8 0.0
23/02:00pm 18.8 16.0 8.5 51 5.3 WNW 13 22 7 12 1022.0 1022.0 0.0
23/01:30pm 18.5 15.0 8.7 53 5.1 WNW 17 20 9 11 1022.3 1022.3 0.0
23/01:00pm 18.0 14.7 9.6 58 4.4 WNW 17 20 9 11 1022.6 1022.6 0.0
23/12:30pm 17.8 14.4 9.2 57 4.5 NNW 17 24 9 13 1023.0 1023.0 0.0
23/12:00pm 17.7 14.3 9.3 58 4.4 N 17 20 9 11 1023.1 1023.1 0.0
23/11:30am 17.6 14.2 9.2 58 4.4 N 17 24 9 13 1023.4 1023.4 0.0
23/11:00am 17.1 13.5 8.3 56 4.5 N 17 24 9 13 1023.6 1023.6 0.0
23/10:30am 17.7 15.8 9.1 57 4.5 NE 9 17 5 9 1023.8 1023.8 0.0
23/10:00am 15.9 13.3 7.7 58 4.1 N 11 15 6 8 1024.1 1024.1 0.0
23/09:30am 15.8 13.6 7.8 59 4.0 N 9 15 5 8 1024.1 1024.1 0.0
23/09:00am 15.7 13.0 8.9 64 3.5 NNE 13 15 7 8 1024.2 1024.2 0.0
23/08:30am 14.6 11.8 8.5 67 3.1 N 13 17 7 9 1024.1 1024.1 0.0
23/08:00am 13.8 10.9 8.2 69 2.8 ENE 13 17 7 9 1023.6 1023.6 0.0
23/07:30am 14.0 11.0 7.5 65 3.2 NE 13 15 7 8 1023.7 1023.7 0.0
23/07:00am 14.0 11.6 8.6 70 2.7 NE 11 15 6 8 1023.0 1023.0 0.0
23/06:30am 14.2 11.1 9.0 71 2.6 NE 15 19 8 10 1022.8 1022.8 0.0
23/06:00am 14.2 11.1 9.0 71 2.6 ENE 15 17 8 9 1022.6 1022.6 0.0
23/05:30am 14.4 12.1 9.0 70 2.8 NE 11 13 6 7 1022.6 1022.6 0.0
23/05:00am 14.4 11.2 8.6 68 2.9 ENE 15 17 8 9 1022.1 1022.1 0.0
23/04:30am 14.4 11.3 8.8 69 2.8 ENE 15 15 8 8 1022.1 1022.1 0.0
23/04:00am 14.2 11.5 8.8 70 2.7 ENE 13 15 7 8 1022.2 1022.2 0.0
23/03:30am 14.2 11.5 9.0 71 2.6 ENE 13 15 7 8 1022.6 1022.6 0.0
23/03:00am 14.2 11.9 9.0 71 2.6 ENE 11 13 6 7 1022.7 1022.7 0.0
23/02:30am 14.2 11.8 8.8 70 2.7 ENE 11 13 6 7 1022.8 1022.8 0.0
23/02:00am 14.0 11.2 8.6 70 2.7 E 13 13 7 7 1023.0 1023.0 0.0
23/01:30am 13.8 10.9 8.2 69 2.8 E 13 15 7 8 1023.0 1023.0 0.0
23/01:00am 14.3 11.5 8.7 69 2.8 E 13 15 7 8 1023.1 1023.1 0.0
23/12:30am 14.0 11.2 8.6 70 2.7 E 13 15 7 8 1023.2 1023.2 0.0
23/12:00am 14.5 11.8 8.9 69 2.8 E 13 15 7 8 1023.3 1023.3 0.0
 
Date/Time
WST
Temp
°C
App
Temp
°C
Dew
Point
Rel
Hum
%
Delta-T
°C
Wind Press
QNH
hPa
Press
MSL
hPa
Rain
since 9 am
mm
Dir
 
Spd
km/h
Gust
km/h
Spd
kts
Gust
kts
22/11:30pm 15.3 13.0 4.9 50 4.9 E 6 7 3 4 1023.5 1023.5 0.0
22/11:00pm 15.5 14.5 5.4 51 4.8 CALM 0 0 0 0 1023.7 1023.7 0.0
22/10:30pm 15.6 14.5 5.2 50 4.9 CALM 0 0 0 0 1024.0 1024.0 0.0
22/10:00pm 15.4 14.3 5.3 51 4.8 CALM 0 0 0 0 1024.1 1024.1 0.0
22/09:30pm 15.5 14.4 5.1 50 4.9 CALM 0 0 0 0 1024.4 1024.4 0.0
22/09:00pm 15.6 13.4 5.2 50 4.9 SW 6 7 3 4 1024.3 1024.3 0.0
22/08:30pm 15.7 12.9 5.0 49 5.1 SW 9 11 5 6 1024.2 1024.2 0.0
22/08:00pm 15.2 11.9 4.6 49 4.9 SW 11 13 6 7 1024.0 1024.0 0.0
22/07:30pm 15.0 11.6 4.1 48 5.0 WSW 11 11 6 6 1023.5 1023.5 0.0
22/07:00pm 14.9 11.6 4.3 49 4.9 WSW 11 13 6 7 1023.2 1023.2 0.0
22/06:30pm 15.2 12.0 4.9 50 4.8 WSW 11 11 6 6 1022.8 1022.8 0.0
22/06:00pm 15.1 11.8 4.8 50 4.8 WSW 11 13 6 7 1022.6 1022.6 0.0
22/05:30pm 16.0 12.8 5.3 49 5.1 WSW 11 15 6 8 1022.4 1022.4 0.0
22/05:00pm 16.9 13.9 5.8 48 5.4 WSW 11 15 6 8 1022.2 1022.2 0.0
22/04:30pm 17.1 14.0 5.7 47 5.5 SSW 11 17 6 9 1022.0 1022.0 0.0
22/04:00pm 17.0 14.4 4.3 43 6.0 SSW 7 15 4 8 1022.2 1022.2 0.0
22/03:30pm 17.1 13.3 4.1 42 6.1 S 13 19 7 10 1022.0 1022.0 0.0
22/03:00pm 17.5 13.9 5.1 44 5.9 S 13 17 7 9 1021.9 1021.9 0.0
22/02:30pm 17.0 13.6 4.0 42 6.1 S 11 15 6 8 1021.7 1021.7 0.0
22/02:00pm 17.6 14.6 4.2 41 6.3 S 9 11 5 6 1021.8 1021.8 0.0
22/01:30pm 16.9 13.2 4.6 44 5.8 S 13 17 7 9 1021.7 1021.7 0.0
22/01:00pm 17.7 13.6 4.3 41 6.3 S 15 22 8 12 1021.7 1021.7 0.0
22/12:30pm 17.6 13.4 5.5 45 5.9 S 17 20 9 11 1021.8 1021.8 0.0
22/12:00pm 17.9 13.5 6.7 48 5.6 SSW 19 24 10 13 1022.0 1022.0 0.0
22/11:30am 17.2 12.1 5.8 47 5.5 SSW 22 26 12 14 1022.2 1022.2 0.0
22/11:00am 16.9 11.5 6.4 50 5.1 S 24 30 13 16 1022.1 1022.1 0.0
22/10:30am 17.4 12.4 6.6 49 5.3 SSW 22 30 12 16 1022.1 1022.1 0.0
22/10:00am 16.7 12.3 6.5 51 5.0 SSW 19 26 10 14 1022.1 1022.1 0.0
22/09:30am 16.0 12.3 8.0 59 4.0 SW 17 22 9 12 1022.0 1022.0 0.0
22/09:00am 16.1 11.7 7.6 57 4.2 WSW 20 24 11 13 1021.8 1021.8 2.8
22/08:30am 16.5 10.5 7.2 54 4.6 SW 28 35 15 19 1021.3 1021.3 2.8
22/08:00am 15.6 10.4 7.4 58 4.1 WSW 24 35 13 19 1020.7 1020.7 2.8
22/07:30am 15.4 8.4 6.9 57 4.2 SW 33 39 18 21 1020.2 1020.2 2.8
22/07:00am 14.6 9.5 6.2 57 4.0 WSW 22 32 12 17 1019.9 1019.9 2.8
22/06:30am 14.9 8.3 4.0 48 5.0 WSW 28 39 15 21 1019.4 1019.4 2.8
22/06:00am 15.1 8.1 6.1 55 4.3 SW 32 41 17 22 1019.1 1019.1 2.8
22/05:30am 15.3 7.7 5.8 53 4.6 WSW 35 46 19 25 1018.6 1018.6 2.8
22/05:00am 15.6 7.9 7.1 57 4.2 WSW 37 48 20 26 1018.3 1018.3 2.8
22/04:30am 15.4 7.6 6.7 56 4.3 SW 37 48 20 26 1018.0 1018.0 2.8
22/04:00am 15.7 7.9 8.2 61 3.8 WSW 39 48 21 26 1017.9 1017.9 2.8
22/03:30am 15.6 9.2 9.5 67 3.2 WSW 33 50 18 27 1017.5 1017.5 2.8
22/03:28am 15.7 9.4 9.1 65 3.4 WSW 32 50 17 27 1017.6 1017.6 2.8
22/03:00am 15.5 9.0 9.0 65 3.3 WSW 33 44 18 24 1017.5 1017.5 2.8
22/02:30am 15.6 9.0 8.6 63 3.6 WSW 33 48 18 26 1017.5 1017.5 2.8
22/02:00am 14.8 6.7 10.2 74 2.4 WSW 43 56 23 30 1017.3 1017.3 2.8
22/01:50am 14.8 7.9 10.4 75 2.3 WSW 37 56 20 30 1017.3 1017.3 2.8
22/01:30am 15.8 9.3 8.1 60 3.9 WSW 32 46 17 25 1017.0 1017.0 2.8
22/01:00am 16.1 8.9 7.6 57 4.2 W 35 50 19 27 1016.7 1016.7 2.8
22/12:30am 15.8 8.9 7.3 57 4.2 W 33 46 18 25 1016.5 1016.4 2.8
22/12:15am 15.7 8.6 8.0 60 3.9 W 35 54 19 29 1016.3 1016.2 2.8
22/12:00am 15.3 7.7 7.6 60 3.8 WSW 37 54 20 29 1016.2 1016.1 2.8
 
Date/Time
WST
Temp
°C
App
Temp
°C
Dew
Point
Rel
Hum
%
Delta-T
°C
Wind Press
QNH
hPa
Press
MSL
hPa
Rain
since 9 am
mm
Dir
 
Spd
km/h
Gust
km/h
Spd
kts
Gust
kts
21/11:45pm 15.4 8.4 8.6 64 3.5 W 35 54 19 29 1016.0 1015.9 2.8
21/11:30pm 15.8 7.3 8.5 62 3.7 W 43 54 23 29 1016.0 1015.9 2.8
21/11:00pm 14.8 8.5 11.0 78 2.0 W 35 57 19 31 1016.0 1015.9 2.8
21/10:58pm 14.6 7.4 10.6 77 2.1 WNW 39 57 21 31 1015.9 1015.8 2.8
21/10:57pm 14.8 6.7 10.6 76 2.2 WNW 44 57 24 31 1016.1 1016.0 2.8
21/10:35pm 15.3 9.8 11.9 80 1.8 W 32 50 17 27 1015.7 1015.6 2.6
21/10:30pm 15.2 8.7 11.6 79 1.9 WSW 37 50 20 27 1015.8 1015.7 2.6
21/10:26pm 15.5 8.1 11.3 76 2.3 WSW 41 50 22 27 1015.8 1015.7 2.6
21/10:00pm 15.2 10.3 12.7 85 1.4 W 30 37 16 20 1015.6 1015.5 2.6
21/09:30pm 16.9 10.4 10.5 66 3.4 WNW 35 46 19 25 1015.4 1015.3 1.2
21/09:00pm 16.4 10.4 10.9 70 2.9 WNW 33 41 18 22 1015.2 1015.1 1.2
21/08:30pm 16.1 12.8 12.8 81 1.8 W 22 30 12 16 1015.1 1015.0 1.2
21/08:00pm 15.3 10.5 11.7 79 1.9 WSW 28 39 15 21 1015.0 1014.9 1.2
21/07:30pm 16.6 12.9 11.5 72 2.8 W 22 28 12 15 1014.3 1014.2 1.2
21/07:00pm 16.5 12.4 11.6 73 2.7 W 24 35 13 19 1014.1 1014.0 1.2
21/06:30pm 16.4 12.8 13.1 81 1.8 WNW 24 32 13 17 1013.8 1013.7 1.2
21/06:00pm 16.3 13.1 13.2 82 1.7 WNW 22 30 12 16 1013.5 1013.4 1.2
21/05:30pm 16.2 13.2 12.7 80 1.9 W 20 28 11 15 1013.2 1013.1 1.0
21/05:00pm 16.4 13.8 13.3 82 1.7 WNW 19 24 10 13 1012.8 1012.7 1.0
21/04:30pm 16.0 13.4 13.8 87 1.2 WNW 20 26 11 14 1012.6 1012.5 1.0
21/04:00pm 15.1 11.4 14.0 93 0.6 WSW 26 41 14 22 1012.6 1012.5 1.0
21/03:30pm 16.1 13.7 14.5 90 0.9 WNW 20 33 11 18 1012.4 1012.3 0.6
21/03:00pm 15.8 13.3 14.0 89 1.0 WNW 20 26 11 14 1012.2 1012.1 0.4
21/02:30pm 15.3 11.7 13.1 87 1.2 W 24 33 13 18 1012.2 1012.1 0.2
21/02:00pm 16.4 11.0 13.9 85 1.4 WSW 35 46 19 25 1011.8 1011.7 0.0
21/01:39pm 17.6 11.2 13.3 76 2.4 W 39 54 21 29 1011.8 1011.7 0.0
21/01:30pm 19.8 12.7 12.3 62 4.2 NW 41 56 22 30 1011.4 1011.3 0.0
21/01:00pm 19.3 12.6 12.3 64 3.9 NW 39 48 21 26 1011.4 1011.3 0.0
21/12:30pm 19.3 13.4 12.3 64 3.9 NW 35 43 19 23 1011.6 1011.5 0.0
21/12:00pm 19.3 13.3 12.1 63 4.0 NW 35 44 19 24 1011.8 1011.7 0.0
21/11:30am 19.3 14.6 12.1 63 4.0 NW 28 32 15 17 1011.9 1011.8 0.0
21/11:00am 19.0 13.0 10.8 59 4.5 WNW 33 43 18 23 1012.4 1012.3 0.0
21/10:30am 18.4 11.0 10.0 58 4.5 W 39 46 21 25 1012.5 1012.4 0.0
21/10:00am 17.9 11.4 10.5 62 4.0 W 35 44 19 24 1012.4 1012.3 0.0
21/09:30am 18.2 11.3 10.3 60 4.2 W 37 50 20 27 1012.2 1012.1 0.0
21/09:07am 18.3 12.0 12.3 68 3.3 W 37 56 20 30 1011.7 1011.6 0.0
21/09:00am 18.0 11.0 11.3 65 3.7 W 39 56 21 30 1011.6 1011.5 8.0
21/08:30am 18.2 10.6 11.7 66 3.6 WNW 43 50 23 27 1011.0 1010.9 8.0
21/08:00am 17.7 12.0 13.0 74 2.6 W 35 43 19 23 1010.6 1010.5 8.0
21/07:46am 16.9 10.4 13.0 78 2.2 W 39 57 21 31 1010.6 1010.5 8.0
21/07:30am 17.6 9.8 13.1 75 2.5 WNW 46 57 25 31 1010.4 1010.3 8.0
21/07:00am 17.6 11.3 17.0 96 0.4 W 46 56 25 30 1009.8 1009.7 8.0
21/06:30am 17.2 11.4 17.0 99 0.1 W 43 54 23 29 1009.3 1009.2 8.0
21/06:05am 17.1 13.2 16.9 99 0.1 WNW 33 54 18 29 1008.8 1008.7 8.0
21/06:00am 17.0 13.6 16.8 99 0.1 NNW 30 41 16 22 1008.5 1008.4 8.0
21/05:52am 17.0 13.0 16.8 99 0.1 NNW 33 41 18 22 1008.2 1008.1 7.6
21/05:43am 17.5 10.5 17.3 99 0.1 NW 50 76 27 41 1008.5 1008.4 7.6
21/05:41am 17.4 9.6 17.2 99 0.1 NNW 54 91 29 49 1006.7 1006.7 7.6
21/05:38am 17.3 10.2 17.1 99 0.1 N 50 69 27 37 1008.2 1008.1 6.2
21/05:30am 17.4 10.3 17.1 98 0.2 N 50 63 27 34 1007.0 1007.0 2.8
21/05:00am 17.4 9.1 16.9 97 0.3 N 56 67 30 36 1006.4 1006.4 1.4
21/04:41am 17.7 9.7 16.7 94 0.6 N 54 74 29 40 1006.6 1006.6 0.8
21/04:30am 17.6 9.2 16.5 93 0.7 N 56 70 30 38 1007.1 1007.1 0.8
21/04:00am 18.1 11.4 16.1 88 1.2 N 46 61 25 33 1007.4 1007.4 0.8
21/03:30am 18.4 11.9 16.6 89 1.1 N 46 59 25 32 1007.5 1007.5 0.6
21/03:00am 17.9 10.6 16.4 91 0.9 N 50 59 27 32 1008.0 1007.9 0.6
21/02:30am 18.0 10.7 15.6 86 1.4 N 48 59 26 32 1008.6 1008.5 0.6
21/02:00am 17.7 11.0 15.1 85 1.5 N 44 59 24 32 1008.9 1008.8 0.6
21/01:30am 17.7 10.6 15.0 84 1.6 N 46 57 25 31 1009.5 1009.4 0.6
21/01:00am 17.8 10.7 15.1 84 1.6 N 46 54 25 29 1009.8 1009.7 0.6
21/12:30am 18.3 10.8 13.8 75 2.6 N 46 57 25 31 1010.2 1010.1 0.6
21/12:00am 18.3 11.2 14.0 76 2.5 N 44 56 24 30 1010.5 1010.4 0.6
 
Date/Time
WST
Temp
°C
App
Temp
°C
Dew
Point
Rel
Hum
%
Delta-T
°C
Wind Press
QNH
hPa
Press
MSL
hPa
Rain
since 9 am
mm
Dir
 
Spd
km/h
Gust
km/h
Spd
kts
Gust
kts
20/11:30pm 18.5 10.9 13.6 73 2.8 N 46 59 25 32 1010.9 1010.8 0.6
20/11:07pm 18.3 12.4 14.8 80 2.0 N 39 57 21 31 1011.1 1011.0 0.6
20/11:00pm 18.3 12.1 14.8 80 2.0 N 41 50 22 27 1011.3 1011.2 0.6
20/10:43pm 18.3 13.1 14.4 78 2.3 N 35 54 19 29 1011.7 1011.6 0.6
20/10:30pm 18.7 11.4 13.3 71 3.1 N 44 59 24 32 1011.6 1011.5 0.6
20/10:26pm 18.7 12.3 13.3 71 3.1 N 39 57 21 31 1011.8 1011.7 0.6
20/10:00pm 18.8 12.0 13.0 69 3.3 N 41 52 22 28 1012.2 1012.1 0.6
20/09:30pm 18.5 12.0 12.9 70 3.1 NNW 39 52 21 28 1012.6 1012.5 0.6
20/09:00pm 18.5 11.3 12.0 66 3.6 NNW 41 50 22 27 1012.8 1012.7 0.6
20/08:30pm 18.4 11.0 11.2 63 3.9 NNW 41 48 22 26 1013.0 1012.9 0.6
20/08:00pm 18.4 12.8 12.2 67 3.4 NNW 33 43 18 23 1013.2 1013.1 0.6
20/07:30pm 18.3 12.5 11.6 65 3.7 NNW 33 44 18 24 1013.3 1013.2 0.6
20/07:00pm 18.2 12.6 11.5 65 3.7 NNW 32 41 17 22 1013.3 1013.2 0.6
20/06:30pm 18.0 12.4 11.6 66 3.5 NNW 32 39 17 21 1013.3 1013.2 0.6
20/06:00pm 17.7 12.9 11.7 68 3.3 NNW 28 35 15 19 1013.1 1013.0 0.6
20/05:30pm 17.7 12.8 11.3 66 3.5 NW 28 35 15 19 1013.1 1013.0 0.6

Other Formats:

Comma delimited format used in spreadsheet applications
http://www.bom.gov.au/fwo/IDW60801/IDW60801.94602.axf

JavaScript Object Notation format (JSON) in row-major order
http://www.bom.gov.au/fwo/IDW60801/IDW60801.94602.json